createdAt,value
2022-12-04T00:01:24.847Z,9.25
2022-12-04T00:03:58.263Z,8.90
2022-12-04T00:06:27.023Z,9.15
2022-12-04T00:08:55.182Z,9.23
2022-12-04T00:11:26.023Z,9.05
2022-12-04T00:13:54.121Z,9.32
2022-12-04T00:16:24.918Z,8.70
2022-12-04T00:18:53.163Z,9.77
2022-12-04T00:21:21.156Z,9.52
2022-12-04T00:23:49.601Z,8.77
2022-12-04T00:26:22.998Z,9.60
2022-12-04T00:28:51.092Z,8.87
2022-12-04T00:31:22.064Z,9.13
2022-12-04T00:33:49.524Z,9.95
2022-12-04T00:36:19.687Z,9.75
2022-12-04T00:38:47.143Z,9.25
2022-12-04T00:41:21.322Z,8.80
2022-12-04T00:43:48.835Z,8.68
2022-12-04T00:46:16.892Z,9.82
2022-12-04T00:48:44.624Z,9.35
2022-12-04T00:51:16.397Z,9.75
2022-12-04T00:53:44.054Z,8.83
2022-12-04T00:56:18.828Z,8.88
2022-12-04T00:58:46.722Z,9.77
2022-12-04T01:01:17.605Z,8.55
2022-12-04T01:03:45.990Z,9.15
2022-12-04T01:06:23.329Z,8.57
2022-12-04T01:08:52.390Z,8.80
2022-12-04T01:11:22.068Z,9.52
2022-12-04T01:13:49.739Z,9.00
2022-12-04T01:16:27.418Z,8.63
2022-12-04T01:18:55.088Z,9.50
2022-12-04T01:21:23.028Z,9.63
2022-12-04T01:23:50.389Z,9.30
2022-12-04T01:26:17.878Z,9.63
2022-12-04T01:28:45.227Z,8.65
2022-12-04T01:31:16.130Z,9.63
2022-12-04T01:33:44.546Z,10.40
2022-12-04T01:36:17.370Z,9.05
2022-12-04T01:38:45.691Z,9.65
2022-12-04T01:41:15.039Z,9.25
2022-12-04T01:43:42.827Z,9.63
2022-12-04T01:46:11.317Z,9.27
2022-12-04T01:48:50.819Z,10.10
2022-12-04T01:51:35.979Z,9.15
2022-12-04T01:54:07.797Z,9.82
2022-12-04T01:56:50.290Z,9.27
2022-12-04T01:59:22.632Z,8.57
2022-12-04T02:02:11.718Z,10.00
2022-12-04T02:04:41.526Z,8.38
2022-12-04T02:07:09.681Z,11.13
2022-12-04T02:09:39.785Z,7.57
2022-12-04T02:12:21.561Z,9.35
2022-12-04T02:15:28.579Z,9.50
2022-12-04T02:18:10.773Z,8.95
2022-12-04T02:20:46.728Z,9.15
2022-12-04T02:23:30.023Z,8.30
2022-12-04T02:26:33.764Z,9.40
2022-12-04T02:29:24.169Z,9.60
2022-12-04T02:31:54.677Z,10.18
2022-12-04T02:34:35.374Z,9.82
2022-12-04T02:37:31.907Z,9.27
2022-12-04T02:40:17.433Z,9.55
2022-12-04T02:43:07.573Z,9.65
2022-12-04T02:45:43.388Z,10.18
2022-12-04T02:48:15.567Z,10.88
2022-12-04T02:50:43.063Z,11.63
2022-12-04T02:53:21.195Z,9.77
2022-12-04T02:58:34.443Z,10.02
2022-12-04T03:01:21.134Z,9.05
2022-12-04T03:04:00.415Z,9.43
2022-12-04T03:06:31.647Z,9.82
2022-12-04T03:09:24.337Z,10.82
2022-12-04T03:12:01.316Z,10.43
2022-12-04T03:14:35.465Z,10.65
2022-12-04T03:17:09.287Z,10.97
2022-12-04T03:20:00.258Z,10.82
2022-12-04T03:22:30.012Z,10.80
2022-12-04T03:24:57.923Z,11.30
2022-12-04T03:27:46.257Z,11.65
2022-12-04T03:30:19.264Z,11.20
2022-12-04T03:33:11.214Z,10.80
2022-12-04T03:36:21.418Z,11.02
2022-12-04T03:38:52.001Z,10.15
2022-12-04T03:41:32.726Z,10.73
2022-12-04T03:44:13.943Z,11.70
2022-12-04T03:47:10.233Z,11.65
2022-12-04T03:49:43.281Z,11.63
2022-12-04T03:52:37.105Z,11.48
2022-12-04T03:55:44.169Z,11.45
2022-12-04T03:58:19.243Z,11.03
2022-12-04T04:00:48.267Z,11.43
2022-12-04T04:03:38.307Z,12.00
2022-12-04T04:06:11.723Z,11.73
2022-12-04T04:08:43.824Z,11.88
2022-12-04T04:11:18.597Z,11.37
2022-12-04T04:14:20.050Z,12.15
2022-12-04T04:17:12.977Z,13.60
2022-12-04T04:20:02.355Z,13.20
2022-12-04T04:23:08.196Z,11.85
2022-12-04T04:25:40.756Z,12.03
2022-12-04T04:28:32.621Z,11.75
2022-12-04T04:31:34.744Z,12.73
2022-12-04T04:34:25.170Z,12.13
2022-12-04T04:37:15.735Z,13.73
2022-12-04T04:39:56.984Z,12.03
2022-12-04T04:42:34.648Z,11.57
2022-12-04T04:45:33.906Z,12.43
2022-12-04T04:48:10.226Z,12.52
2022-12-04T04:50:39.655Z,11.70
2022-12-04T04:53:12.458Z,12.40
2022-12-04T04:55:40.639Z,13.48
2022-12-04T04:58:11.223Z,13.35
2022-12-04T05:00:40.062Z,12.60
2022-12-04T05:03:07.934Z,11.88
2022-12-04T05:05:35.418Z,10.97
2022-12-04T05:08:02.771Z,12.70
2022-12-04T05:10:30.189Z,13.80
2022-12-04T05:12:57.487Z,12.55
2022-12-04T05:15:24.948Z,11.88
2022-12-04T05:17:52.245Z,11.40
2022-12-04T05:20:19.678Z,12.23
2022-12-04T05:22:47.175Z,12.32
2022-12-04T05:25:14.787Z,12.38
2022-12-04T05:27:42.334Z,12.35
2022-12-04T05:30:12.012Z,11.60
2022-12-04T05:32:39.370Z,12.98
2022-12-04T05:35:11.116Z,13.68
2022-12-04T05:37:40.776Z,13.23
2022-12-04T05:40:09.367Z,12.60
2022-12-04T05:42:36.891Z,11.93
2022-12-04T05:45:04.566Z,12.25
2022-12-04T05:47:31.886Z,12.65
2022-12-04T05:49:59.375Z,12.93
2022-12-04T05:52:26.876Z,13.57
2022-12-04T05:54:54.246Z,12.77
2022-12-04T05:57:25.239Z,12.73
2022-12-04T05:59:53.322Z,13.02
2022-12-04T06:02:21.224Z,12.30
2022-12-04T06:04:49.081Z,11.43
2022-12-04T06:07:16.522Z,11.57
2022-12-04T06:09:44.119Z,12.68
2022-12-04T06:12:11.605Z,11.30
2022-12-04T06:14:39.980Z,12.07
2022-12-04T06:17:07.930Z,12.35
2022-12-04T06:19:35.363Z,11.97
2022-12-04T06:22:02.924Z,11.75
2022-12-04T06:24:30.326Z,12.52
2022-12-04T06:29:47.103Z,12.88
2022-12-04T06:32:19.709Z,12.27
2022-12-04T06:34:53.573Z,14.07
2022-12-04T06:37:25.439Z,14.00
2022-12-04T06:39:53.048Z,13.57
2022-12-04T06:42:20.799Z,12.82
2022-12-04T06:44:49.156Z,12.87
2022-12-04T06:47:16.644Z,12.73
2022-12-04T06:49:46.291Z,13.10
2022-12-04T06:52:14.875Z,12.65
2022-12-04T06:54:42.637Z,11.90
2022-12-04T06:57:10.116Z,13.10
2022-12-04T06:59:37.516Z,13.60
2022-12-04T07:02:05.200Z,12.20
2022-12-04T07:04:32.798Z,12.48
2022-12-04T07:07:00.377Z,13.20
2022-12-04T07:09:28.002Z,11.27
2022-12-04T07:11:55.521Z,12.73
2022-12-04T07:14:22.928Z,13.05
2022-12-04T07:16:50.907Z,11.60
2022-12-04T07:19:18.427Z,13.05
2022-12-04T07:21:45.960Z,12.97
2022-12-04T07:24:17.922Z,12.48
2022-12-04T07:26:46.037Z,11.73
2022-12-04T07:29:13.843Z,12.90
2022-12-04T07:31:41.546Z,13.00
2022-12-04T07:34:09.421Z,12.10
2022-12-04T07:36:37.039Z,10.77
2022-12-04T07:39:04.522Z,31.60
2022-12-04T07:41:32.116Z,24.20
2022-12-04T07:43:59.650Z,15.23
2022-12-04T07:46:29.207Z,10.83
2022-12-04T07:48:57.999Z,10.23
2022-12-04T07:51:28.521Z,10.13
2022-12-04T07:54:02.868Z,10.63
2022-12-04T07:56:31.854Z,11.80
2022-12-04T07:59:00.694Z,10.63
2022-12-04T08:01:28.540Z,11.45
2022-12-04T08:03:58.064Z,10.98
2022-12-04T08:06:27.749Z,12.77
2022-12-04T08:08:55.265Z,11.25
2022-12-04T08:11:25.105Z,11.57
2022-12-04T08:13:57.707Z,11.10
2022-12-04T08:16:27.293Z,11.48
2022-12-04T08:18:55.600Z,10.93
2022-12-04T08:21:26.141Z,11.82
2022-12-04T08:23:55.585Z,11.73
2022-12-04T08:26:24.981Z,12.43
2022-12-04T08:28:56.942Z,11.00
2022-12-04T08:31:27.424Z,10.75
2022-12-04T08:33:57.506Z,11.52
2022-12-04T08:36:25.615Z,12.63
2022-12-04T08:38:53.427Z,11.10
2022-12-04T08:41:24.348Z,12.02
2022-12-04T08:43:55.037Z,11.23
2022-12-04T08:46:23.893Z,12.20
2022-12-04T08:48:51.581Z,11.30
2022-12-04T08:51:21.992Z,11.98
2022-12-04T08:53:52.896Z,12.18
2022-12-04T08:56:20.576Z,12.00
2022-12-04T08:58:48.658Z,12.10
2022-12-04T09:01:16.740Z,11.27
2022-12-04T09:03:45.204Z,10.65
2022-12-04T09:06:14.721Z,11.02
2022-12-04T09:08:43.550Z,11.95
2022-12-04T09:11:17.518Z,12.55
2022-12-04T09:13:46.306Z,12.50
2022-12-04T09:16:17.432Z,10.25
2022-12-04T09:18:46.065Z,11.70
2022-12-04T09:21:18.978Z,11.95
2022-12-04T09:23:47.659Z,12.18
2022-12-04T09:26:27.783Z,10.67
2022-12-04T09:28:56.862Z,11.68
2022-12-04T09:31:29.609Z,11.32
2022-12-04T09:34:00.346Z,11.77
2022-12-04T09:36:28.514Z,11.75
2022-12-04T09:38:57.983Z,10.67
2022-12-04T09:41:38.593Z,12.35
2022-12-04T09:44:33.052Z,12.13
2022-12-04T09:47:03.570Z,11.23
2022-12-04T09:49:48.666Z,10.80
2022-12-04T09:52:26.160Z,11.07
2022-12-04T09:54:54.366Z,11.20
2022-12-04T09:57:57.035Z,11.88
2022-12-04T10:00:28.768Z,11.98
2022-12-04T10:03:02.356Z,12.18
2022-12-04T10:05:54.723Z,11.63
2022-12-04T10:08:35.042Z,12.65
2022-12-04T10:11:32.278Z,12.20
2022-12-04T10:14:13.919Z,11.95
2022-12-04T10:17:03.600Z,11.70
2022-12-04T10:19:50.086Z,10.30
2022-12-04T10:22:26.632Z,11.88
2022-12-04T10:25:02.027Z,11.75
2022-12-04T10:27:56.118Z,11.30
2022-12-04T10:30:37.141Z,11.70
2022-12-04T10:33:21.043Z,11.33
2022-12-04T10:35:53.004Z,12.45
2022-12-04T10:38:42.530Z,12.10
2022-12-04T10:41:22.949Z,11.23
2022-12-04T10:43:51.790Z,11.65
2022-12-04T10:46:26.279Z,11.73
2022-12-04T10:49:04.153Z,11.75
2022-12-04T10:51:44.710Z,11.18
2022-12-04T10:54:20.541Z,11.82
2022-12-04T10:56:56.264Z,12.25
2022-12-04T10:59:25.477Z,10.67
2022-12-04T11:02:04.827Z,11.10
2022-12-04T11:04:36.176Z,12.90
2022-12-04T11:07:21.536Z,11.95
2022-12-04T11:10:01.901Z,11.55
2022-12-04T11:12:30.433Z,10.83
2022-12-04T11:15:16.896Z,11.30
2022-12-04T11:17:45.118Z,11.68
2022-12-04T11:20:25.298Z,11.85
2022-12-04T11:22:58.501Z,11.45
2022-12-04T11:25:30.767Z,11.23
2022-12-04T11:28:02.760Z,11.80
2022-12-04T11:30:39.423Z,11.30
2022-12-04T11:33:18.742Z,11.43
2022-12-04T11:35:55.742Z,12.25
2022-12-04T11:38:28.776Z,10.97
2022-12-04T11:40:59.465Z,11.80
2022-12-04T11:43:30.824Z,11.85
2022-12-04T11:46:04.505Z,11.85
2022-12-04T11:48:41.652Z,12.15
2022-12-04T11:51:30.171Z,12.40
2022-12-04T11:54:22.214Z,11.40
2022-12-04T11:57:16.144Z,11.50
2022-12-04T12:00:03.853Z,11.63
2022-12-04T12:02:49.984Z,12.13
2022-12-04T12:05:28.060Z,11.20
2022-12-04T12:08:30.840Z,10.90
2022-12-04T12:11:22.730Z,13.20
2022-12-04T12:13:59.632Z,10.90
2022-12-04T12:16:51.797Z,12.52
2022-12-04T12:19:49.224Z,11.60
2022-12-04T12:22:43.310Z,11.57
2022-12-04T12:25:28.374Z,10.65
2022-12-04T12:28:18.734Z,12.00
2022-12-04T12:31:27.490Z,11.18
2022-12-04T12:34:04.493Z,11.23
2022-12-04T12:36:41.364Z,11.57
2022-12-04T12:39:24.000Z,11.90
2022-12-04T12:41:56.154Z,12.20
2022-12-04T12:44:37.747Z,11.13
2022-12-04T12:47:20.053Z,12.10
2022-12-04T12:49:57.777Z,11.20
2022-12-04T12:52:40.043Z,12.27
2022-12-04T12:55:32.019Z,11.98
2022-12-04T12:58:12.869Z,10.57
2022-12-04T13:00:47.318Z,11.37
2022-12-04T13:03:25.193Z,11.88
2022-12-04T13:05:57.352Z,12.48
2022-12-04T13:08:46.366Z,11.35
2022-12-04T13:11:23.270Z,11.80
2022-12-04T13:14:01.349Z,11.73
2022-12-04T13:17:03.021Z,11.93
2022-12-04T13:19:35.592Z,13.40
2022-12-04T13:22:05.873Z,11.65
2022-12-04T13:25:13.228Z,11.77
2022-12-04T13:28:32.174Z,11.00
2022-12-04T13:31:41.062Z,11.05
2022-12-04T13:34:26.421Z,12.05
2022-12-04T13:37:12.541Z,12.00
2022-12-04T13:40:26.304Z,11.88
2022-12-04T13:43:05.038Z,11.13
2022-12-04T13:45:34.436Z,11.88
2022-12-04T13:48:04.096Z,11.07
2022-12-04T13:50:38.312Z,10.15
2022-12-04T13:53:07.071Z,11.93
2022-12-04T13:55:38.506Z,10.70
2022-12-04T13:58:13.808Z,10.85
2022-12-04T14:00:44.267Z,10.80
2022-12-04T14:03:36.845Z,12.27
2022-12-04T14:06:20.799Z,11.15
2022-12-04T14:08:48.844Z,10.87
2022-12-04T14:11:22.081Z,10.05
2022-12-04T14:13:52.747Z,12.05
2022-12-04T14:16:43.190Z,10.75
2022-12-04T14:19:46.587Z,11.27
2022-12-04T14:22:38.072Z,11.63
2022-12-04T14:25:34.868Z,10.60
2022-12-04T14:28:37.299Z,11.52
2022-12-04T14:31:09.056Z,10.73
2022-12-04T14:34:18.750Z,10.38
2022-12-04T14:36:49.316Z,10.87
2022-12-04T14:39:46.549Z,10.77
2022-12-04T14:42:18.871Z,10.13
2022-12-04T14:44:47.988Z,10.50
2022-12-04T14:47:43.866Z,11.02
2022-12-04T14:50:30.272Z,9.73
2022-12-04T14:53:35.955Z,10.07
2022-12-04T14:56:26.570Z,11.07
2022-12-04T14:58:58.147Z,10.43
2022-12-04T15:01:30.788Z,10.85
2022-12-04T15:04:03.986Z,10.83
2022-12-04T15:06:33.842Z,11.25
2022-12-04T15:09:22.949Z,10.93
2022-12-04T15:12:12.315Z,14.27
2022-12-04T15:14:50.752Z,18.73
2022-12-04T15:17:19.437Z,12.37
2022-12-04T15:19:47.076Z,12.63
2022-12-04T15:22:27.875Z,12.48
2022-12-04T15:24:56.098Z,12.13
2022-12-04T15:27:32.021Z,11.65
2022-12-04T15:30:03.891Z,11.53
2022-12-04T15:32:33.455Z,12.25
2022-12-04T15:35:06.991Z,13.50
2022-12-04T15:37:35.277Z,13.05
2022-12-04T15:40:07.898Z,12.02
2022-12-04T15:42:35.724Z,11.20
2022-12-04T15:45:21.962Z,11.10
2022-12-04T15:47:57.637Z,11.50
2022-12-04T15:50:28.147Z,12.05
2022-12-04T15:53:11.762Z,12.82
2022-12-04T15:55:52.095Z,12.73
2022-12-04T15:58:27.972Z,11.77
2022-12-04T16:00:59.617Z,11.70
2022-12-04T16:03:35.045Z,13.07
2022-12-04T16:06:05.223Z,14.05
2022-12-04T16:08:37.260Z,13.27
2022-12-04T16:11:08.989Z,15.18
2022-12-04T16:13:38.854Z,12.80
2022-12-04T16:16:15.926Z,12.43
2022-12-04T16:18:44.665Z,13.48
2022-12-04T16:21:21.365Z,11.77
2022-12-04T16:23:50.376Z,11.90
2022-12-04T16:26:20.165Z,11.93
2022-12-04T16:28:49.125Z,11.95
2022-12-04T16:31:18.856Z,12.15
2022-12-04T16:33:46.888Z,13.40
2022-12-04T16:36:14.858Z,10.88
2022-12-04T16:38:42.395Z,12.68
2022-12-04T16:41:18.320Z,11.00
2022-12-04T16:43:46.280Z,11.95
2022-12-04T16:46:16.751Z,12.77
2022-12-04T16:48:45.085Z,12.82
2022-12-04T16:51:25.745Z,11.63
2022-12-04T16:53:54.870Z,11.38
2022-12-04T16:56:22.550Z,14.15
2022-12-04T16:58:50.280Z,12.50
2022-12-04T17:01:22.268Z,11.82
2022-12-04T17:03:50.416Z,12.82
2022-12-04T17:06:20.415Z,12.00
2022-12-04T17:08:48.473Z,13.50
2022-12-04T17:11:18.043Z,12.40
2022-12-04T17:13:47.251Z,11.23
2022-12-04T17:16:19.637Z,11.25
2022-12-04T17:18:47.721Z,12.25
2022-12-04T17:21:15.298Z,13.32
2022-12-04T17:23:43.601Z,12.30
2022-12-04T17:26:15.608Z,13.43
2022-12-04T17:28:43.478Z,13.52
2022-12-04T17:31:25.861Z,12.27
2022-12-04T17:33:54.070Z,12.30
2022-12-04T17:36:25.350Z,12.17
2022-12-04T17:38:58.479Z,12.82
2022-12-04T17:41:26.862Z,13.18
2022-12-04T17:43:54.910Z,11.48
2022-12-04T17:46:24.810Z,11.77
2022-12-04T17:48:55.879Z,12.07
2022-12-04T17:51:25.946Z,11.82
2022-12-04T17:53:53.470Z,12.45
2022-12-04T17:56:23.476Z,14.30
2022-12-04T17:58:53.676Z,13.38
2022-12-04T18:01:26.114Z,12.87
2022-12-04T18:04:04.070Z,13.18
2022-12-04T18:06:36.355Z,13.18
2022-12-04T18:09:05.340Z,12.45
2022-12-04T18:11:35.890Z,12.85
2022-12-04T18:14:12.267Z,12.53
2022-12-04T18:16:48.367Z,12.93
2022-12-04T18:19:16.362Z,13.90
2022-12-04T18:21:44.123Z,12.82
2022-12-04T18:24:13.310Z,13.57
2022-12-04T18:26:45.720Z,12.13
2022-12-04T18:29:19.147Z,13.90
2022-12-04T18:31:48.201Z,13.15
2022-12-04T18:34:17.089Z,12.57
2022-12-04T18:36:48.953Z,12.50
2022-12-04T18:39:22.799Z,13.23
2022-12-04T18:41:50.951Z,12.55
2022-12-04T18:44:18.604Z,13.32
2022-12-04T18:46:46.586Z,12.70
2022-12-04T18:49:14.719Z,13.73
2022-12-04T18:51:49.699Z,14.03
2022-12-04T18:54:24.950Z,14.77
2022-12-04T18:56:54.956Z,15.32
2022-12-04T18:59:26.001Z,12.63
2022-12-04T19:01:55.828Z,15.48
2022-12-04T19:04:25.866Z,14.27
2022-12-04T19:06:56.336Z,12.38
2022-12-04T19:09:47.245Z,14.80
2022-12-04T19:12:14.073Z,14.48
2022-12-04T19:14:41.683Z,14.10
2022-12-04T19:17:09.381Z,12.17
2022-12-04T19:19:36.874Z,13.23
2022-12-04T19:22:04.797Z,13.50
2022-12-04T19:24:32.797Z,13.38
2022-12-04T19:27:02.127Z,13.73
2022-12-04T19:29:29.741Z,13.63
2022-12-04T19:31:59.489Z,13.48
2022-12-04T19:34:27.386Z,14.20
2022-12-04T19:36:55.824Z,14.45
2022-12-04T19:39:23.446Z,14.23
2022-12-04T19:41:51.057Z,14.03
2022-12-04T19:44:49.352Z,12.68
2022-12-04T19:47:06.407Z,14.02
2022-12-04T19:49:33.891Z,13.73
2022-12-04T19:52:01.561Z,13.82
2022-12-04T19:54:31.770Z,13.17
2022-12-04T19:56:59.326Z,13.35
2022-12-04T19:59:28.555Z,13.20
2022-12-04T20:01:59.594Z,14.82
2022-12-04T20:04:27.121Z,12.90
2022-12-04T20:06:54.657Z,12.63
2022-12-04T20:09:23.120Z,13.32
2022-12-04T20:11:50.659Z,14.10
2022-12-04T20:14:18.271Z,13.25
2022-12-04T20:16:46.685Z,13.95
2022-12-04T20:19:19.639Z,14.10
2022-12-04T20:21:47.868Z,14.05
2022-12-04T20:24:17.655Z,13.73
2022-12-04T20:26:46.421Z,13.30
2022-12-04T20:29:15.885Z,14.60
2022-12-04T20:31:46.325Z,13.53
2022-12-04T20:34:16.434Z,13.38
2022-12-04T20:36:46.233Z,14.27
2022-12-04T20:39:15.343Z,14.35
2022-12-04T20:41:43.370Z,14.70
2022-12-04T20:44:14.717Z,13.10
2022-12-04T20:46:43.031Z,13.75
2022-12-04T20:49:21.158Z,12.90
2022-12-04T20:51:49.899Z,13.95
2022-12-04T20:54:19.635Z,12.63
2022-12-04T20:56:49.319Z,12.90
2022-12-04T20:59:18.945Z,13.95
2022-12-04T21:01:47.519Z,14.98
2022-12-04T21:04:18.137Z,14.05
2022-12-04T21:06:47.254Z,14.90
2022-12-04T21:09:20.864Z,14.33
2022-12-04T21:11:51.479Z,14.43
2022-12-04T21:14:44.130Z,14.32
2022-12-04T21:17:17.124Z,13.13
2022-12-04T21:19:50.637Z,14.63
2022-12-04T21:22:19.713Z,14.30
2022-12-04T21:24:47.312Z,13.40
2022-12-04T21:27:20.753Z,13.00
2022-12-04T21:29:49.726Z,14.02
2022-12-04T21:32:18.057Z,14.70
2022-12-04T21:34:46.002Z,12.60
2022-12-04T21:37:13.775Z,13.27
2022-12-04T21:39:42.283Z,13.55
2022-12-04T21:42:28.220Z,13.93
2022-12-04T21:44:55.839Z,15.82
2022-12-04T21:47:23.541Z,13.93
2022-12-04T21:49:51.250Z,13.38
2022-12-04T21:52:19.646Z,14.55
2022-12-04T21:54:53.945Z,13.98
2022-12-04T21:57:22.950Z,13.23
2022-12-04T21:59:53.311Z,13.33
2022-12-04T22:02:21.608Z,12.63
2022-12-04T22:04:49.314Z,12.80
2022-12-04T22:07:17.281Z,14.02
2022-12-04T22:09:44.965Z,13.52
2022-12-04T22:12:41.366Z,13.70
2022-12-04T22:15:00.303Z,13.75
2022-12-04T22:17:30.255Z,14.77
2022-12-04T22:19:57.923Z,13.35
2022-12-04T22:22:25.703Z,14.75
2022-12-04T22:24:53.128Z,13.90
2022-12-04T22:27:20.573Z,14.45
2022-12-04T22:29:50.958Z,14.60
2022-12-04T22:32:19.727Z,14.13
2022-12-04T22:34:50.394Z,14.48
2022-12-04T22:37:18.211Z,14.43
2022-12-04T22:39:45.643Z,14.65
2022-12-04T22:42:13.161Z,17.25
2022-12-04T22:44:40.700Z,16.10
2022-12-04T22:47:08.315Z,14.32
2022-12-04T22:49:36.068Z,15.13
2022-12-04T22:52:03.697Z,14.13
2022-12-04T22:54:31.206Z,13.75
2022-12-04T22:56:58.871Z,14.13
2022-12-04T22:59:26.362Z,14.85
2022-12-04T23:01:53.856Z,16.40
2022-12-04T23:04:21.302Z,14.82
2022-12-04T23:06:48.786Z,14.15
2022-12-04T23:09:17.889Z,14.70
2022-12-04T23:11:45.751Z,14.45
2022-12-04T23:14:15.708Z,14.13
2022-12-04T23:16:43.735Z,14.05
2022-12-04T23:19:16.745Z,14.55
2022-12-04T23:21:45.351Z,13.80
2022-12-04T23:24:13.720Z,13.65
2022-12-04T23:26:44.112Z,13.43
2022-12-04T23:29:37.009Z,13.40
2022-12-04T23:32:00.304Z,14.05
2022-12-04T23:34:28.078Z,12.07
2022-12-04T23:36:55.572Z,13.60
2022-12-04T23:39:23.182Z,12.97
2022-12-04T23:41:50.839Z,13.88
2022-12-04T23:44:18.360Z,14.57
2022-12-04T23:46:46.004Z,13.43
2022-12-04T23:49:13.628Z,13.98
2022-12-04T23:51:41.165Z,14.17
2022-12-04T23:54:08.797Z,12.95
2022-12-04T23:56:36.444Z,13.90
2022-12-04T23:59:04.189Z,13.93
